Hastings, Minnesota
Current Conditions -  °F | °C
As of 10:30 AM on Saturday 25 Oct 2014 (Local Time) from KSGS Reporting Station
Clear Clear  
Wind Chill: 57°   Ceiling: Unl
Heat Index: 57°   Visibility: 10mi
Dew Point: 31°   Wind: 13mph
Humidity: 37%   Direction: 320°NW
Pressure: 30.04"   Gusts: 18mph
Location:  44.74°N, 92.85°W
Report Text: KSGS 251530Z AUTO 32011G16KT 10SM CLR 14/00 A3004 RMK AO2 T01401004
Loading
Personal Weather Stations






























Interactive Weather Map
Tropical Storm Tracking
New forecast layout! Learn more

10-Day Weather Forecast

Advertisements
Track Severe Weather on mobile